Time;durP1;ratioP1;P1;durP2;ratioP2;P2;SDS_P1;SDS_P2;PMS_P1;PMS_P2;Temp;Humidity;BMP_temperature;BMP_pressure;BME280_temperature;BME280_humidity;BME280_pressure;Samples;Min_cycle;Max_cycle;Signal;HPM_P1;HPM_P2
2023/03/07 00:01:05;;;;;;;60.45;30.08;;;5.20;76.70;;;;;;5074819;28;20044;-16
2023/03/07 00:03:31;;;;;;;54.60;28.85;;;5.20;76.70;;;;;;5074504;28;20040;-17
2023/03/07 00:06:06;;;;;;;65.25;32.90;;;5.10;76.60;;;;;;5074658;28;20029;-18
2023/03/07 00:08:32;;;;;;;49.60;26.30;;;5.10;76.50;;;;;;5075494;28;20196;-16
2023/03/07 00:11:02;;;;;;;66.15;33.13;;;5.00;76.40;;;;;;5074382;28;20116;-18
2023/03/07 00:13:30;;;;;;;51.90;27.88;;;5.00;76.60;;;;;;5074869;28;20467;-17
2023/03/07 00:16:07;;;;;;;55.72;29.83;;;4.90;76.80;;;;;;5074869;28;20028;-19
2023/03/07 00:18:34;;;;;;;53.08;28.02;;;4.90;76.80;;;;;;5074442;28;20031;-18
2023/03/07 00:21:04;;;;;;;59.70;31.55;;;4.80;77.00;;;;;;5074342;28;20090;-16
2023/03/07 00:23:31;;;;;;;70.90;35.03;;;4.80;76.90;;;;;;5074683;28;20032;-18
2023/03/07 00:26:02;;;;;;;46.08;26.83;;;4.80;77.10;;;;;;5074213;28;20488;-18
2023/03/07 00:28:29;;;;;;;50.55;29.95;;;4.80;77.00;;;;;;5074241;28;20070;-18
2023/03/07 00:30:59;;;;;;;68.80;34.85;;;4.70;76.90;;;;;;5074025;28;20052;-16
2023/03/07 00:33:25;;;;;;;58.20;30.05;;;4.70;76.90;;;;;;5074145;28;20097;-17
2023/03/07 00:36:02;;;;;;;60.03;31.42;;;4.60;77.00;;;;;;5074472;28;20028;-17
2023/03/07 00:38:30;;;;;;;49.53;27.27;;;4.50;77.00;;;;;;5074150;28;20032;-17
2023/03/07 00:41:08;;;;;;;53.88;28.52;;;4.50;77.10;;;;;;5074530;28;20103;-17
2023/03/07 00:43:35;;;;;;;75.65;38.83;;;4.50;77.30;;;;;;5072645;28;20060;-16
2023/03/07 00:46:02;;;;;;;67.78;34.33;;;4.60;77.60;;;;;;5074002;28;20025;-16
2023/03/07 00:48:31;;;;;;;56.30;31.10;;;4.60;77.60;;;;;;5072580;28;20044;-17
2023/03/07 00:50:57;;;;;;;75.43;37.58;;;4.70;77.80;;;;;;5073641;28;20023;-17
2023/03/07 00:53:24;;;;;;;64.60;33.80;;;4.70;77.50;;;;;;5073905;28;20111;-16
2023/03/07 00:56:19;;;;;;;53.88;27.30;;;4.60;77.50;;;;;;5074279;28;20052;-16
2023/03/07 00:58:46;;;;;;;44.67;24.58;;;4.60;77.30;;;;;;5073550;28;20488;-17
2023/03/07 01:01:15;;;;;;;53.17;27.90;;;4.60;77.10;;;;;;5072361;28;20024;-16
2023/03/07 01:03:41;;;;;;;53.80;29.83;;;4.60;77.00;;;;;;5073396;28;20053;-16
2023/03/07 01:06:12;;;;;;;67.40;36.35;;;4.60;77.40;;;;;;5073470;28;20383;-17
2023/03/07 01:08:38;;;;;;;75.60;36.13;;;4.50;77.40;;;;;;5073450;28;20125;-16
2023/03/07 01:11:06;;;;;;;72.05;37.10;;;4.50;77.20;;;;;;5073993;28;20528;-17
2023/03/07 01:13:34;;;;;;;71.47;35.78;;;4.40;77.30;;;;;;5073346;28;20383;-18
2023/03/07 01:16:20;;;;;;;61.10;30.88;;;4.40;77.60;;;;;;5073611;28;20372;-18
2023/03/07 01:18:51;;;;;;;60.22;30.60;;;4.40;77.70;;;;;;5073040;28;20027;-16
2023/03/07 01:21:21;;;;;;;57.72;29.70;;;4.40;77.70;;;;;;5073598;28;20107;-16
2023/03/07 01:23:47;;;;;;;52.17;28.30;;;4.40;77.90;;;;;;5073704;28;20028;-15
2023/03/07 01:26:25;;;;;;;68.05;33.50;;;4.40;77.90;;;;;;5073240;28;20024;-15
2023/03/07 01:28:55;;;;;;;64.28;32.60;;;4.40;77.80;;;;;;5073049;28;20048;-18
2023/03/07 01:31:22;;;;;;;72.47;35.67;;;4.40;77.90;;;;;;5073059;28;20033;-17
2023/03/07 01:33:49;;;;;;;69.57;35.63;;;4.40;77.90;;;;;;5072904;28;20149;-17
2023/03/07 01:36:29;;;;;;;66.47;34.65;;;4.30;78.00;;;;;;5072983;28;20035;-16
2023/03/07 01:39:01;;;;;;;49.33;27.38;;;4.30;77.90;;;;;;5072055;28;20021;-18
2023/03/07 01:41:31;;;;;;;70.90;35.78;;;4.30;78.10;;;;;;5072884;28;20509;-15
2023/03/07 01:44:04;;;;;;;55.65;29.95;;;4.30;78.40;;;;;;5071572;28;20465;-16
2023/03/07 01:46:37;;;;;;;69.25;36.40;;;4.30;78.20;;;;;;5072900;28;20029;-13
2023/03/07 01:49:11;;;;;;;58.38;30.52;;;4.30;77.90;;;;;;5072859;28;20036;-15
2023/03/07 01:51:39;;;;;;;81.43;38.22;;;4.20;77.90;;;;;;5073035;28;20032;-15
2023/03/07 01:54:07;;;;;;;65.28;34.40;;;4.20;78.00;;;;;;5071348;28;20027;-17
2023/03/07 01:56:35;;;;;;;72.32;34.90;;;4.20;78.80;;;;;;5072930;28;20174;-16
2023/03/07 01:59:01;;;;;;;69.45;33.30;;;4.20;78.40;;;;;;5072447;28;20380;-16
2023/03/07 02:01:27;;;;;;;60.25;31.65;;;4.20;78.40;;;;;;5071735;28;20070;-16
2023/03/07 02:04:07;;;;;;;61.33;32.85;;;4.20;78.40;;;;;;5072355;28;20121;-16
2023/03/07 02:06:35;;;;;;;54.00;29.23;;;4.10;78.50;;;;;;5072480;28;20487;-15
2023/03/07 02:09:02;;;;;;;66.38;34.85;;;4.10;78.50;;;;;;5072298;28;20099;-16
2023/03/07 02:11:28;;;;;;;68.47;33.13;;;4.10;78.60;;;;;;5072704;28;20131;-15
2023/03/07 02:13:54;;;;;;;56.22;29.45;;;4.10;78.60;;;;;;5072364;28;20020;-15
2023/03/07 02:16:20;;;;;;;55.60;30.33;;;4.00;78.80;;;;;;5073230;28;20028;-15
2023/03/07 02:18:49;;;;;;;53.63;29.13;;;3.90;78.90;;;;;;5072030;28;20395;-14
2023/03/07 02:21:36;;;;;;;63.35;31.88;;;3.90;78.90;;;;;;5144996;22;20053;-22
2023/03/07 02:24:25;;;;;;;68.30;35.42;;;3.90;78.80;;;;;;5052438;28;20052;-22
2023/03/07 02:26:52;;;;;;;62.60;30.45;;;3.90;78.50;;;;;;5093782;23;20103;-19
2023/03/07 02:29:18;;;;;;;59.92;29.92;;;3.90;78.70;;;;;;5032268;28;20029;-16
2023/03/07 02:31:45;;;;;;;53.88;29.05;;;3.90;78.70;;;;;;5136548;22;20060;-17
2023/03/07 02:34:26;;;;;;;53.25;26.92;;;3.90;78.70;;;;;;5072514;28;20033;-16
2023/03/07 02:37:03;;;;;;;53.45;28.27;;;3.80;78.60;;;;;;5156462;22;20035;-13
2023/03/07 02:39:30;;;;;;;44.60;24.67;;;3.80;78.40;;;;;;5052517;28;20103;-18
2023/03/07 02:42:02;;;;;;;50.53;27.73;;;3.90;78.50;;;;;;5052141;28;20508;-16
2023/03/07 02:44:28;;;;;;;51.33;28.00;;;3.90;78.50;;;;;;5052266;28;20376;-16
2023/03/07 02:46:54;;;;;;;58.67;29.85;;;3.90;78.70;;;;;;5051909;28;20032;-16
2023/03/07 02:49:20;;;;;;;59.20;30.73;;;3.90;78.80;;;;;;5052271;28;20104;-18
2023/03/07 02:51:46;;;;;;;54.17;30.33;;;3.90;78.80;;;;;;5056017;28;20056;-17
2023/03/07 02:54:12;;;;;;;72.50;36.95;;;3.80;78.80;;;;;;5056391;28;20052;-17
2023/03/07 02:56:38;;;;;;;68.85;34.03;;;3.80;78.60;;;;;;5056004;28;20395;-17
2023/03/07 02:59:04;;;;;;;67.43;34.20;;;3.70;78.50;;;;;;5055977;28;20035;-18
2023/03/07 03:01:30;;;;;;;58.90;31.13;;;3.70;78.40;;;;;;5056101;28;20021;-16
2023/03/07 03:03:56;;;;;;;64.13;32.58;;;3.70;78.60;;;;;;5055889;28;20060;-16
2023/03/07 03:06:23;;;;;;;64.75;33.65;;;3.70;78.70;;;;;;5055878;28;20071;-17
2023/03/07 03:08:49;;;;;;;51.42;29.58;;;3.70;78.70;;;;;;5055630;28;20025;-18
2023/03/07 03:11:15;;;;;;;59.25;31.27;;;3.70;78.70;;;;;;5055712;28;20384;-18
2023/03/07 03:13:41;;;;;;;55.22;30.38;;;3.70;78.80;;;;;;5055638;28;20036;-16
2023/03/07 03:16:07;;;;;;;56.83;30.23;;;3.70;79.00;;;;;;5037709;28;20119;-18
2023/03/07 03:18:33;;;;;;;52.95;29.05;;;3.70;79.00;;;;;;5055829;28;20123;-17
2023/03/07 03:20:59;;;;;;;54.30;29.25;;;3.70;79.10;;;;;;5055523;28;20040;-17
2023/03/07 03:23:28;;;;;;;60.08;31.15;;;3.60;79.10;;;;;;5130833;22;20385;-17
2023/03/07 03:26:01;;;;;;;60.15;31.35;;;3.60;79.00;;;;;;5075395;28;20494;-20
2023/03/07 03:28:28;;;;;;;74.43;36.50;;;3.60;78.90;;;;;;5075456;28;20016;-21
2023/03/07 03:31:01;;;;;;;75.40;38.78;;;3.60;78.90;;;;;;5075361;28;20037;-21
2023/03/07 03:33:28;;;;;;;65.68;32.45;;;3.50;78.70;;;;;;5075334;28;20044;-21
2023/03/07 03:35:56;;;;;;;62.88;32.50;;;3.50;79.00;;;;;;5075219;28;20479;-21
2023/03/07 03:38:22;;;;;;;66.35;34.67;;;3.40;79.20;;;;;;5075285;28;20017;-22
2023/03/07 03:40:48;;;;;;;53.55;29.25;;;3.40;79.30;;;;;;5075035;28;20017;-22
2023/03/07 03:43:14;;;;;;;52.58;29.98;;;3.40;79.40;;;;;;5075207;28;20040;-20
2023/03/07 03:45:40;;;;;;;60.83;30.80;;;3.40;79.50;;;;;;5075309;28;20029;-22
2023/03/07 03:48:07;;;;;;;44.83;26.13;;;3.40;79.50;;;;;;5075072;28;20026;-20
2023/03/07 03:50:33;;;;;;;68.85;33.60;;;3.40;79.40;;;;;;5074895;28;20036;-22
2023/03/07 03:53:00;;;;;;;51.10;28.42;;;3.30;79.40;;;;;;5074611;28;20440;-21
2023/03/07 03:55:26;;;;;;;58.88;30.63;;;3.30;79.50;;;;;;5075192;28;20371;-21
2023/03/07 03:57:52;;;;;;;70.43;36.38;;;3.30;79.50;;;;;;5074816;28;20032;-22
2023/03/07 04:00:19;;;;;;;61.33;31.25;;;3.30;79.20;;;;;;5074763;28;20025;-22
2023/03/07 04:02:45;;;;;;;64.30;32.90;;;3.20;79.30;;;;;;5074495;28;20043;-21
2023/03/07 04:05:12;;;;;;;66.00;32.17;;;3.20;79.40;;;;;;5074983;28;20020;-21
2023/03/07 04:07:38;;;;;;;55.67;29.33;;;3.20;79.40;;;;;;5124944;22;20051;-19
2023/03/07 04:10:05;;;;;;;55.45;29.38;;;3.20;79.50;;;;;;5075007;28;20024;-17
2023/03/07 04:12:31;;;;;;;56.47;28.33;;;3.20;79.60;;;;;;5074941;28;20052;-19
2023/03/07 04:14:57;;;;;;;47.20;26.50;;;3.20;79.60;;;;;;5073003;28;20016;-18
2023/03/07 04:17:23;;;;;;;61.10;31.73;;;3.20;79.70;;;;;;5163997;22;20059;-19
2023/03/07 04:19:49;;;;;;;64.82;30.77;;;3.20;79.60;;;;;;5094601;28;20028;-18
2023/03/07 04:22:15;;;;;;;52.60;27.42;;;3.20;79.70;;;;;;5094802;28;20055;-18
2023/03/07 04:24:41;;;;;;;44.10;25.48;;;3.20;79.60;;;;;;5076491;28;20028;-17
2023/03/07 04:27:07;;;;;;;67.80;35.60;;;3.20;79.70;;;;;;5094841;28;20032;-17
2023/03/07 04:29:33;;;;;;;58.05;29.90;;;3.20;79.50;;;;;;5094815;28;20082;-18
2023/03/07 04:31:59;;;;;;;55.78;29.48;;;3.20;79.40;;;;;;5094477;28;20028;-18
2023/03/07 04:34:25;;;;;;;57.45;29.67;;;3.10;79.50;;;;;;5094368;28;20375;-18
2023/03/07 04:36:51;;;;;;;56.67;29.75;;;3.10;79.60;;;;;;5094161;28;20112;-20
2023/03/07 04:39:17;;;;;;;57.20;31.17;;;3.20;79.70;;;;;;5076232;28;20079;-19
2023/03/07 04:41:43;;;;;;;55.10;28.77;;;3.10;79.90;;;;;;5094303;28;20027;-18
2023/03/07 04:44:09;;;;;;;55.05;28.63;;;3.10;80.30;;;;;;5094116;28;20043;-19
2023/03/07 04:46:35;;;;;;;44.95;26.00;;;3.10;80.10;;;;;;5147860;22;20533;-18
2023/03/07 04:49:01;;;;;;;50.47;28.00;;;3.10;79.70;;;;;;5073747;28;20020;-18
2023/03/07 04:51:27;;;;;;;58.17;28.15;;;3.10;79.70;;;;;;5074233;28;20028;-18
2023/03/07 04:53:53;;;;;;;51.78;28.05;;;3.10;79.70;;;;;;5074147;28;20015;-18
2023/03/07 04:56:18;;;;;;;51.30;26.65;;;3.20;79.60;;;;;;5130520;22;20052;-17
2023/03/07 04:58:45;;;;;;;50.25;27.10;;;3.20;79.50;;;;;;5073843;28;20170;-21
2023/03/07 05:01:11;;;;;;;43.22;25.52;;;3.20;79.50;;;;;;5055760;28;20059;-20
2023/03/07 05:03:37;;;;;;;58.85;29.15;;;3.10;79.60;;;;;;5073642;28;20086;-20
2023/03/07 05:06:06;;;;;;;64.18;31.50;;;3.10;79.60;;;;;;5127965;22;20080;-18
2023/03/07 05:08:32;;;;;;;55.90;28.58;;;3.10;79.50;;;;;;5073831;28;20059;-17
2023/03/07 05:10:58;;;;;;;44.38;23.77;;;3.00;79.60;;;;;;5073579;28;20131;-17
2023/03/07 05:15:56;;;;;;;51.88;27.67;;;2.90;79.40;;;;;;5050605;28;20123;-18
2023/03/07 05:18:22;;;;;;;59.50;30.95;;;3.00;79.40;;;;;;5053676;28;20032;-18
2023/03/07 05:20:48;;;;;;;55.75;30.38;;;3.00;79.50;;;;;;5172334;22;20140;-16
2023/03/07 05:23:15;;;;;;;54.22;29.30;;;2.90;79.70;;;;;;5093547;28;20070;-18
2023/03/07 05:25:40;;;;;;;63.70;32.40;;;2.90;79.70;;;;;;5093377;28;20021;-17
2023/03/07 05:28:06;;;;;;;65.97;32.83;;;2.80;79.60;;;;;;5093336;28;20062;-16
2023/03/07 05:30:33;;;;;;;54.38;29.85;;;2.80;79.90;;;;;;5093325;28;20024;-18
2023/03/07 05:32:59;;;;;;;49.20;27.88;;;2.80;79.90;;;;;;5163210;22;20063;-20
2023/03/07 05:35:25;;;;;;;48.85;27.40;;;2.80;80.00;;;;;;5093224;28;20092;-20
2023/03/07 05:37:51;;;;;;;60.00;31.63;;;2.80;79.70;;;;;;5093434;28;20455;-18
2023/03/07 05:40:18;;;;;;;56.05;29.30;;;2.80;79.90;;;;;;5093145;28;20150;-19
2023/03/07 05:42:44;;;;;;;55.80;29.00;;;2.70;79.90;;;;;;5092756;28;20513;-19
2023/03/07 05:45:10;;;;;;;52.20;28.08;;;2.70;79.70;;;;;;5093259;28;20081;-20
2023/03/07 05:47:37;;;;;;;58.88;28.52;;;2.70;79.80;;;;;;5093116;28;20024;-19
2023/03/07 05:50:04;;;;;;;43.65;23.77;;;2.70;80.00;;;;;;5150568;22;20575;-17
2023/03/07 05:52:31;;;;;;;61.15;31.02;;;2.60;80.00;;;;;;5092994;28;20051;-18
2023/03/07 05:54:56;;;;;;;63.75;31.77;;;2.60;80.20;;;;;;5092991;28;20052;-19
2023/03/07 05:59:54;;;;;;;52.00;27.95;;;2.60;80.10;;;;;;5049129;28;20503;-22
2023/03/07 06:02:20;;;;;;;62.03;31.45;;;2.50;80.20;;;;;;5052786;28;20029;-20
2023/03/07 06:04:46;;;;;;;74.70;35.33;;;2.50;80.40;;;;;;5052285;28;20040;-20
2023/03/07 06:07:12;;;;;;;64.97;31.67;;;2.50;80.50;;;;;;5051594;28;20029;-19
2023/03/07 06:09:38;;;;;;;54.10;30.00;;;2.50;80.60;;;;;;5052734;28;20078;-21
2023/03/07 06:12:04;;;;;;;58.28;29.83;;;2.50;80.70;;;;;;5052316;28;20112;-19
2023/03/07 06:14:31;;;;;;;59.10;29.45;;;2.50;80.80;;;;;;5052319;28;20021;-20
2023/03/07 06:16:57;;;;;;;77.55;38.85;;;2.60;80.80;;;;;;5112020;22;20057;-18
2023/03/07 06:19:23;;;;;;;63.22;32.05;;;2.60;80.80;;;;;;5052733;28;20021;-18
2023/03/07 06:21:49;;;;;;;74.18;34.60;;;2.70;80.60;;;;;;5052421;28;20025;-19
2023/03/07 06:24:15;;;;;;;70.97;35.00;;;2.80;80.70;;;;;;5052010;28;20033;-19
2023/03/07 06:26:41;;;;;;;50.45;28.20;;;2.80;80.60;;;;;;5052134;28;20049;-17
2023/03/07 06:29:07;;;;;;;63.88;31.13;;;2.90;81.50;;;;;;5052517;28;20028;-18
2023/03/07 06:31:32;;;;;;;44.45;25.35;;;3.00;81.40;;;;;;5052353;28;20021;-18
2023/03/07 06:33:58;;;;;;;57.08;28.55;;;3.20;81.20;;;;;;5052479;28;20071;-19
2023/03/07 06:36:24;;;;;;;62.85;33.00;;;3.30;81.10;;;;;;5052234;28;20108;-18
2023/03/07 06:38:50;;;;;;;65.93;35.63;;;3.40;81.10;;;;;;5051808;28;20033;-18
2023/03/07 06:41:16;;;;;;;68.10;37.30;;;3.60;80.70;;;;;;5052088;28;20037;-17
2023/03/07 06:43:42;;;;;;;76.43;37.10;;;3.70;80.40;;;;;;5052078;28;20021;-18
2023/03/07 06:46:08;;;;;;;67.18;35.20;;;3.80;80.30;;;;;;5052395;28;20040;-18
2023/03/07 06:48:34;;;;;;;59.15;32.20;;;3.90;80.30;;;;;;5052188;28;20025;-17
2023/03/07 06:51:06;;;;;;;51.42;27.92;;;4.10;80.40;;;;;;5051885;28;20040;-18
2023/03/07 06:53:32;;;;;;;51.55;28.27;;;4.30;80.20;;;;;;5052005;28;20555;-18
2023/03/07 06:55:58;;;;;;;61.42;32.28;;;4.40;79.40;;;;;;5052172;28;20071;-18
2023/03/07 06:58:24;;;;;;;61.97;33.17;;;4.60;79.40;;;;;;5052095;28;20096;-19
2023/03/07 07:00:50;;;;;;;64.93;35.08;;;4.90;79.40;;;;;;5051773;28;20025;-19
2023/03/07 07:03:18;;;;;;;77.55;39.42;;;5.10;79.40;;;;;;5051824;28;20336;-17
2023/03/07 07:05:44;;;;;;;89.22;44.83;;;5.40;79.50;;;;;;5050674;28;20372;-18
2023/03/07 07:08:10;;;;;;;92.38;47.47;;;5.60;79.70;;;;;;5052135;28;20032;-18
2023/03/07 07:10:37;;;;;;;94.13;45.80;;;5.80;79.40;;;;;;5052131;28;20075;-18
2023/03/07 07:13:03;;;;;;;84.40;43.60;;;6.00;79.00;;;;;;5050271;28;20120;-19
2023/03/07 07:15:30;;;;;;;84.07;42.95;;;6.10;78.90;;;;;;5051811;28;20052;-18
2023/03/07 07:17:56;;;;;;;67.53;38.80;;;6.30;78.90;;;;;;5051576;28;20104;-18
2023/03/07 07:20:22;;;;;;;69.93;38.97;;;6.40;79.00;;;;;;5128163;22;20109;-16
2023/03/07 07:22:49;;;;;;;69.18;38.25;;;6.60;78.90;;;;;;5071277;28;20483;-19
2023/03/07 07:25:15;;;;;;;72.05;39.30;;;6.80;78.80;;;;;;5131435;22;20501;-17
2023/03/07 07:27:40;;;;;;;66.50;35.20;;;7.00;78.50;;;;;;5090777;28;20028;-17
2023/03/07 07:32:43;;;;;;;61.25;33.75;;;7.40;78.60;;;;;;5047235;26;20057;-18
2023/03/07 07:35:09;;;;;;;78.85;39.03;;;7.70;78.10;;;;;;5051596;28;20033;-17
2023/03/07 07:37:35;;;;;;;72.82;38.92;;;7.90;78.10;;;;;;5054798;28;20025;-17
2023/03/07 07:40:01;;;;;;;72.43;37.53;;;8.20;77.10;;;;;;5055417;28;20036;-17
2023/03/07 07:42:26;;;;;;;78.88;41.58;;;8.30;76.40;;;;;;5143505;22;20046;-22
2023/03/07 07:44:52;;;;;;;70.82;39.05;;;8.40;76.20;;;;;;5095358;28;20031;-21
2023/03/07 07:47:18;;;;;;;73.82;39.92;;;8.60;76.10;;;;;;5151317;22;20100;-14
2023/03/07 07:49:44;;;;;;;68.43;39.00;;;8.70;75.80;;;;;;5095535;28;20032;-18
2023/03/07 07:52:10;;;;;;;72.30;39.33;;;8.80;75.50;;;;;;5094995;28;20108;-17
2023/03/07 07:54:36;;;;;;;80.50;41.28;;;9.00;75.30;;;;;;5094046;28;20016;-14
2023/03/07 07:57:02;;;;;;;77.80;40.72;;;9.20;75.00;;;;;;5095048;28;20020;-17
2023/03/07 07:59:27;;;;;;;79.35;43.10;;;9.30;74.60;;;;;;5095073;28;20103;-16
2023/03/07 08:01:53;;;;;;;75.05;39.58;;;9.40;74.60;;;;;;5095114;28;20069;-17
2023/03/07 08:04:20;;;;;;;79.05;42.25;;;9.60;74.40;;;;;;5094726;28;20043;-16
2023/03/07 08:06:46;;;;;;;71.43;39.55;;;9.70;74.10;;;;;;5094935;28;20132;-16
2023/03/07 08:09:13;;;;;;;81.00;43.72;;;9.90;73.80;;;;;;5095134;28;20507;-16
2023/03/07 08:11:39;;;;;;;67.05;37.30;;;10.10;73.60;;;;;;5094869;28;20471;-16
2023/03/07 08:14:05;;;;;;;68.53;37.55;;;10.30;73.50;;;;;;5095415;28;20040;-17
2023/03/07 08:16:31;;;;;;;74.60;40.88;;;10.50;73.30;;;;;;5094763;28;20116;-16
2023/03/07 08:18:57;;;;;;;75.13;40.25;;;10.70;73.10;;;;;;5094610;28;20024;-17
2023/03/07 08:21:25;;;;;;;75.32;40.05;;;10.80;73.00;;;;;;5094675;28;20452;-17
2023/03/07 08:23:52;;;;;;;85.32;44.20;;;10.90;72.80;;;;;;5094798;28;20085;-18
2023/03/07 08:26:18;;;;;;;69.63;38.05;;;11.20;72.60;;;;;;5094820;28;20467;-15
2023/03/07 08:28:43;;;;;;;69.95;41.03;;;11.30;72.20;;;;;;5172861;22;20134;-18
2023/03/07 08:31:28;;;;;;;70.47;38.53;;;11.50;71.90;;;;;;5054774;28;20029;-15
2023/03/07 08:33:54;;;;;;;71.53;40.30;;;11.60;71.20;;;;;;5054354;28;20036;-16
2023/03/07 08:36:20;;;;;;;63.47;36.70;;;11.80;71.20;;;;;;5054243;28;20029;-15
2023/03/07 08:38:50;;;;;;;66.68;36.67;;;11.90;70.90;;;;;;5054014;28;20028;-16
2023/03/07 08:41:17;;;;;;;64.97;34.47;;;12.10;70.70;;;;;;5052823;28;20384;-15
2023/03/07 08:43:43;;;;;;;65.03;33.03;;;12.40;70.50;;;;;;5054233;28;20025;-17
2023/03/07 08:46:09;;;;;;;68.55;36.42;;;12.60;69.80;;;;;;5069402;28;20395;-16
2023/03/07 08:48:34;;;;;;;61.92;32.35;;;12.70;69.20;;;;;;5054101;28;20032;-16
2023/03/07 08:51:09;;;;;;;57.35;30.17;;;12.80;69.00;;;;;;5053803;28;20025;-16
2023/03/07 08:53:36;;;;;;;58.65;31.92;;;12.80;68.50;;;;;;5054058;28;20093;-16
2023/03/07 08:56:06;;;;;;;56.08;29.67;;;12.70;68.70;;;;;;5053931;28;20032;-16
2023/03/07 08:58:32;;;;;;;51.13;28.88;;;12.80;68.50;;;;;;5053888;28;20025;-16
2023/03/07 09:00:58;;;;;;;58.47;29.55;;;12.90;68.50;;;;;;5053885;28;20035;-16
2023/03/07 09:03:24;;;;;;;57.28;30.20;;;13.00;68.40;;;;;;5068974;28;20364;-16
2023/03/07 09:05:50;;;;;;;60.42;30.73;;;13.30;66.90;;;;;;5053963;28;20401;-16
2023/03/07 09:08:16;;;;;;;54.92;27.80;;;13.50;66.90;;;;;;5053588;28;20052;-17
2023/03/07 09:10:42;;;;;;;46.72;27.00;;;13.70;66.60;;;;;;5053443;28;20029;-17
2023/03/07 09:13:07;;;;;;;55.92;29.73;;;13.90;66.40;;;;;;5069483;28;20056;-16
2023/03/07 09:15:33;;;;;;;44.95;24.10;;;14.00;65.80;;;;;;5053636;28;20071;-16
2023/03/07 09:17:59;;;;;;;49.92;26.48;;;13.90;65.00;;;;;;5053778;28;20107;-16
2023/03/07 09:20:25;;;;;;;39.40;20.77;;;13.90;65.30;;;;;;5053823;28;20021;-16
2023/03/07 09:22:52;;;;;;;39.60;22.67;;;13.90;65.80;;;;;;5053134;28;20033;-16
2023/03/07 09:25:19;;;;;;;44.72;25.08;;;14.00;65.70;;;;;;5053277;28;20029;-17
2023/03/07 09:27:45;;;;;;;44.75;24.30;;;14.00;64.70;;;;;;5053327;28;20023;-15
2023/03/07 09:30:12;;;;;;;32.00;18.33;;;14.10;64.50;;;;;;5053102;28;20049;-15
2023/03/07 09:32:39;;;;;;;42.22;23.17;;;14.20;65.10;;;;;;5053217;28;20049;-16
2023/03/07 09:35:06;;;;;;;41.47;24.13;;;14.50;65.00;;;;;;5053078;28;20049;-17
2023/03/07 09:37:32;;;;;;;39.00;22.90;;;14.70;63.40;;;;;;5053248;28;20021;-15
2023/03/07 09:39:58;;;;;;;39.80;23.90;;;14.90;63.40;;;;;;5138853;22;20049;-21
2023/03/07 09:43:08;;;;;;;43.45;24.05;;;15.20;61.60;;;;;;5072594;28;20453;-19
2023/03/07 09:45:43;;;;;;;41.45;22.73;;;15.40;61.00;;;;;;5056982;28;20044;-19
2023/03/07 09:48:22;;;;;;;44.63;23.48;;;15.50;61.20;;;;;;5072807;28;20529;-20
2023/03/07 09:51:15;;;;;;;33.40;20.25;;;15.60;61.20;;;;;;5072715;28;20123;-20
2023/03/07 09:53:42;;;;;;;42.40;23.30;;;15.60;61.10;;;;;;5044085;28;20064;-19
2023/03/07 09:56:14;;;;;;;34.92;21.13;;;15.70;61.50;;;;;;5072401;28;20024;-19
2023/03/07 09:58:46;;;;;;;39.58;21.73;;;15.90;61.70;;;;;;5071819;28;20107;-19
2023/03/07 10:01:14;;;;;;;39.47;22.85;;;16.20;61.00;;;;;;5072882;28;20063;-19
2023/03/07 10:03:51;;;;;;;45.05;27.50;;;16.40;60.10;;;;;;5072560;28;20036;-21
2023/03/07 10:06:36;;;;;;;47.22;27.08;;;16.50;58.80;;;;;;5072414;28;20035;-20
2023/03/07 10:09:10;;;;;;;40.58;23.90;;;16.60;59.00;;;;;;5072487;28;20024;-20
2023/03/07 10:11:54;;;;;;;41.97;23.90;;;16.70;58.70;;;;;;5072336;28;20047;-19
2023/03/07 10:14:49;;;;;;;42.58;24.95;;;17.00;56.80;;;;;;5126989;22;20048;-15
2023/03/07 10:17:15;;;;;;;43.55;24.35;;;17.40;56.00;;;;;;5072362;28;20082;-14
2023/03/07 10:19:55;;;;;;;45.97;27.70;;;17.70;55.90;;;;;;5072490;28;20025;-17
2023/03/07 10:22:37;;;;;;;45.17;25.52;;;17.90;54.90;;;;;;5072491;28;20032;-17
2023/03/07 10:25:27;;;;;;;36.20;22.25;;;18.00;55.00;;;;;;5072168;28;20039;-17
2023/03/07 10:28:00;;;;;;;43.38;25.90;;;18.20;53.70;;;;;;5072220;28;20483;-17
2023/03/07 10:30:30;;;;;;;48.03;26.77;;;18.50;52.20;;;;;;5072466;28;20462;-15
2023/03/07 10:32:58;;;;;;;44.47;25.73;;;18.70;51.30;;;;;;5071961;28;20340;-15
2023/03/07 10:35:41;;;;;;;42.63;25.42;;;18.90;50.40;;;;;;5072369;28;20025;-15
2023/03/07 10:38:32;;;;;;;42.42;25.70;;;19.10;49.70;;;;;;5072418;28;20024;-16
2023/03/07 10:41:13;;;;;;;44.10;25.10;;;19.40;49.00;;;;;;5071993;28;20328;-15
2023/03/07 10:43:39;;;;;;;44.88;26.23;;;19.60;48.60;;;;;;5072247;28;20193;-14
2023/03/07 10:46:15;;;;;;;43.60;26.65;;;19.90;47.90;;;;;;5123492;22;20495;-18
2023/03/07 10:48:45;;;;;;;44.55;26.52;;;20.10;47.20;;;;;;5032151;28;20083;-19
2023/03/07 10:51:29;;;;;;;48.15;26.92;;;20.00;47.90;;;;;;5100920;22;20416;-18
2023/03/07 10:53:56;;;;;;;40.97;24.35;;;19.40;48.80;;;;;;5052179;28;20036;-17
2023/03/07 10:56:22;;;;;;;37.38;23.73;;;19.00;50.30;;;;;;5052141;28;20064;-15
2023/03/07 10:59:08;;;;;;;42.88;27.08;;;19.10;50.80;;;;;;5140693;22;20407;-17
2023/03/07 11:01:53;;;;;;;38.42;24.60;;;19.10;49.80;;;;;;5071793;28;20060;-17
2023/03/07 11:04:22;;;;;;;40.67;24.55;;;19.00;50.10;;;;;;5071839;28;20059;-17
2023/03/07 11:07:30;;;;;;;41.38;26.38;;;19.00;49.50;;;;;;5127917;22;20136;-15
2023/03/07 11:09:58;;;;;;;42.40;26.48;;;19.20;48.00;;;;;;5045190;28;20044;-17
2023/03/07 11:12:26;;;;;;;43.05;26.70;;;19.30;48.80;;;;;;5074900;28;20028;-17
2023/03/07 11:15:10;;;;;;;40.97;25.92;;;19.30;48.90;;;;;;5075544;28;20024;-16
2023/03/07 11:17:43;;;;;;;41.22;25.48;;;19.50;46.60;;;;;;5149022;22;20031;-20
2023/03/07 11:20:22;;;;;;;43.85;26.85;;;19.80;45.20;;;;;;5055087;28;20419;-21
2023/03/07 11:22:49;;;;;;;42.70;26.85;;;19.90;45.60;;;;;;5115562;22;20491;-16
2023/03/07 11:25:20;;;;;;;37.28;24.45;;;19.80;46.20;;;;;;5074389;28;20469;-17
2023/03/07 11:27:55;;;;;;;40.60;24.92;;;19.50;46.40;;;;;;5075556;28;20051;-16
2023/03/07 11:30:21;;;;;;;40.70;24.52;;;19.40;46.30;;;;;;5075762;28;20036;-15
2023/03/07 11:32:52;;;;;;;42.78;24.05;;;19.40;46.30;;;;;;5075205;28;20035;-14
2023/03/07 11:35:28;;;;;;;36.50;22.15;;;19.50;47.20;;;;;;5075360;28;20340;-16
2023/03/07 11:38:06;;;;;;;42.38;25.15;;;19.90;46.80;;;;;;5075426;28;20025;-15
2023/03/07 11:41:13;;;;;;;38.85;24.40;;;20.20;45.30;;;;;;5075458;28;20024;-15
2023/03/07 11:43:41;;;;;;;34.35;20.98;;;20.40;45.60;;;;;;5075176;28;20060;-15
2023/03/07 11:46:16;;;;;;;36.90;22.08;;;20.20;45.10;;;;;;5075390;28;20025;-13
2023/03/07 11:49:15;;;;;;;37.30;21.50;;;20.30;44.90;;;;;;5075210;28;20123;-18
2023/03/07 11:51:59;;;;;;;35.08;22.65;;;20.60;43.80;;;;;;5075359;28;20032;-18
2023/03/07 11:54:32;;;;;;;33.25;20.85;;;20.90;42.90;;;;;;5075124;28;20074;-15
2023/03/07 11:57:20;;;;;;;32.30;20.52;;;21.00;43.90;;;;;;5074914;28;20028;-15
2023/03/07 12:00:02;;;;;;;38.85;22.80;;;21.20;43.70;;;;;;5075287;28;20074;-15
2023/03/07 12:02:43;;;;;;;37.10;22.75;;;21.30;43.70;;;;;;5074821;28;20439;-15
2023/03/07 12:05:17;;;;;;;31.90;19.35;;;21.20;43.70;;;;;;5075078;28;20424;-15
2023/03/07 12:07:56;;;;;;;32.80;18.92;;;20.90;44.10;;;;;;5075250;28;20095;-16
2023/03/07 12:10:38;;;;;;;37.53;21.05;;;20.80;44.70;;;;;;5056739;28;20038;-16
2023/03/07 12:13:15;;;;;;;33.25;19.90;;;21.00;44.40;;;;;;5074809;28;20052;-17
2023/03/07 12:15:54;;;;;;;35.80;22.77;;;21.30;43.50;;;;;;5075054;28;20024;-14
2023/03/07 12:18:25;;;;;;;35.72;22.75;;;21.50;42.00;;;;;;5074720;28;20349;-15
2023/03/07 12:21:09;;;;;;;34.80;21.80;;;21.80;41.50;;;;;;5074660;28;20048;-15
2023/03/07 12:23:46;;;;;;;35.47;23.27;;;22.00;40.80;;;;;;5073841;28;20117;-17
2023/03/07 12:26:35;;;;;;;36.55;22.25;;;22.20;40.90;;;;;;5074507;28;20384;-15
2023/03/07 12:29:12;;;;;;;33.28;19.50;;;22.00;40.90;;;;;;5074139;28;20025;-15
2023/03/07 12:31:46;;;;;;;32.13;20.23;;;22.00;39.00;;;;;;5074357;28;20032;-15
2023/03/07 12:34:25;;;;;;;31.23;19.52;;;21.90;39.20;;;;;;5074264;28;20035;-16
2023/03/07 12:36:59;;;;;;;35.40;20.17;;;21.60;39.50;;;;;;5074312;28;20032;-15
2023/03/07 12:39:45;;;;;;;31.58;20.17;;;21.10;40.60;;;;;;5179702;22;20047;-19
2023/03/07 12:42:48;;;;;;;34.55;20.15;;;20.70;41.30;;;;;;5115128;28;20046;-19
2023/03/07 12:45:19;;;;;;;34.15;18.58;;;20.70;40.50;;;;;;5153498;22;20059;-17
2023/03/07 12:47:58;;;;;;;31.77;17.70;;;20.50;40.90;;;;;;5094555;28;20020;-15
2023/03/07 12:50:50;;;;;;;34.13;18.33;;;20.30;41.60;;;;;;5094477;28;20082;-14
2023/03/07 12:53:34;;;;;;;28.75;16.38;;;20.20;41.80;;;;;;5094218;28;20094;-15
2023/03/07 12:56:10;;;;;;;28.23;16.83;;;19.90;42.40;;;;;;5164593;22;20048;-20